createdAt,value
2018-09-23T00:02:16.339Z,15.17
2018-09-23T00:04:44.656Z,14.87
2018-09-23T00:07:12.945Z,13.37
2018-09-23T00:09:41.196Z,13.80
2018-09-23T00:12:09.450Z,15.40
2018-09-23T00:14:37.731Z,11.80
2018-09-23T00:17:06.167Z,10.67
2018-09-23T00:19:34.414Z,16.90
2018-09-23T00:22:02.690Z,17.50
2018-09-23T00:24:31.016Z,16.43
2018-09-23T00:26:59.263Z,9.77
2018-09-23T00:29:32.796Z,10.23
2018-09-23T00:32:01.094Z,12.53
2018-09-23T00:34:29.491Z,13.50
2018-09-23T00:36:57.783Z,15.87
2018-09-23T00:39:26.068Z,21.10
2018-09-23T00:41:54.439Z,12.87
2018-09-23T00:44:22.709Z,16.80
2018-09-23T00:46:50.999Z,16.83
2018-09-23T00:49:19.243Z,13.00
2018-09-23T00:51:47.495Z,18.27
2018-09-23T00:54:15.795Z,10.27
2018-09-23T00:56:44.056Z,16.90
2018-09-23T00:59:12.344Z,14.57
2018-09-23T01:01:40.606Z,15.03
2018-09-23T01:04:09.109Z,16.17
2018-09-23T01:06:37.387Z,19.63
2018-09-23T01:09:07.364Z,16.67
2018-09-23T01:11:35.639Z,24.00
2018-09-23T01:14:04.147Z,12.10
2018-09-23T01:16:32.445Z,16.90
2018-09-23T01:19:00.715Z,16.03
2018-09-23T01:21:28.967Z,17.70
2018-09-23T01:23:57.214Z,13.10
2018-09-23T01:26:25.506Z,14.03
2018-09-23T01:28:53.751Z,12.73
2018-09-23T01:31:22.048Z,15.57
2018-09-23T01:33:50.415Z,14.17
2018-09-23T01:36:18.696Z,18.13
2018-09-23T01:38:46.966Z,18.10
2018-09-23T01:41:15.239Z,15.03
2018-09-23T01:43:44.229Z,17.63
2018-09-23T01:46:12.494Z,13.73
2018-09-23T01:48:40.779Z,25.50
2018-09-23T01:51:09.044Z,21.47
2018-09-23T01:53:37.306Z,16.00
2018-09-23T01:56:05.615Z,19.20
2018-09-23T01:58:33.924Z,17.33
2018-09-23T02:01:02.188Z,18.10
2018-09-23T02:03:30.587Z,18.07
2018-09-23T02:05:58.912Z,20.00
2018-09-23T02:08:27.162Z,22.50
2018-09-23T02:10:55.436Z,28.10
2018-09-23T02:13:23.682Z,22.47
2018-09-23T02:15:51.960Z,18.73
2018-09-23T02:18:20.234Z,22.13
2018-09-23T02:20:48.475Z,23.90
2018-09-23T02:23:16.743Z,26.30
2018-09-23T02:25:44.991Z,21.93
2018-09-23T02:28:13.291Z,18.90
2018-09-23T02:30:41.575Z,21.23
2018-09-23T02:33:09.860Z,22.90
2018-09-23T02:35:38.140Z,24.10
2018-09-23T02:38:06.396Z,26.00
2018-09-23T02:40:34.665Z,27.93
2018-09-23T02:43:02.964Z,28.07
2018-09-23T02:45:31.204Z,17.77
2018-09-23T02:47:59.470Z,21.23
2018-09-23T02:50:27.727Z,26.63
2018-09-23T02:52:56.039Z,17.93
2018-09-23T02:55:24.382Z,23.97
2018-09-23T02:57:52.622Z,20.43
2018-09-23T03:00:20.887Z,26.60
2018-09-23T03:02:49.152Z,24.93
2018-09-23T03:05:17.389Z,16.73
2018-09-23T03:07:45.634Z,32.67
2018-09-23T03:10:13.900Z,16.67
2018-09-23T03:12:42.167Z,23.00
2018-09-23T03:15:10.440Z,28.60
2018-09-23T03:17:38.713Z,19.50
2018-09-23T03:20:06.953Z,27.47
2018-09-23T03:22:35.228Z,22.70
2018-09-23T03:25:03.531Z,19.70
2018-09-23T03:27:31.882Z,26.23
2018-09-23T03:30:00.144Z,26.07
2018-09-23T03:32:28.424Z,25.23
2018-09-23T03:34:56.719Z,26.23
2018-09-23T03:37:24.990Z,26.83
2018-09-23T03:39:53.395Z,23.97
2018-09-23T03:42:21.724Z,24.33
2018-09-23T03:44:49.980Z,25.03
2018-09-23T03:47:18.277Z,27.27
2018-09-23T03:49:46.560Z,29.37
2018-09-23T03:52:14.855Z,29.53
2018-09-23T03:54:43.215Z,32.33
2018-09-23T03:57:11.482Z,33.67
2018-09-23T03:59:39.707Z,36.50
2018-09-23T04:02:07.967Z,34.23
2018-09-23T04:04:36.239Z,38.70
2018-09-23T04:07:04.783Z,32.17
2018-09-23T04:09:33.034Z,27.67
2018-09-23T04:12:01.385Z,34.00
2018-09-23T04:14:29.563Z,31.23
2018-09-23T04:16:57.787Z,36.10
2018-09-23T04:19:26.051Z,31.73
2018-09-23T04:21:54.332Z,45.53
2018-09-23T04:24:22.800Z,29.17
2018-09-23T04:26:51.046Z,51.13
2018-09-23T04:29:19.299Z,44.33
2018-09-23T04:31:47.572Z,45.13
2018-09-23T04:34:15.834Z,51.17
2018-09-23T04:36:44.075Z,43.83
2018-09-23T04:39:12.681Z,43.03
2018-09-23T04:41:40.955Z,45.10
2018-09-23T04:44:15.910Z,52.67
2018-09-23T04:46:44.142Z,51.77
2018-09-23T04:49:12.418Z,48.30
2018-09-23T04:51:47.321Z,34.27
2018-09-23T04:54:15.640Z,47.03
2018-09-23T04:56:43.888Z,41.47
2018-09-23T04:59:12.183Z,47.93
2018-09-23T05:01:40.414Z,48.23
2018-09-23T05:04:08.755Z,44.93
2018-09-23T05:06:37.030Z,54.60
2018-09-23T05:09:07.078Z,46.27
2018-09-23T05:11:35.323Z,55.87
2018-09-23T05:14:03.619Z,59.33
2018-09-23T05:16:31.891Z,58.20
2018-09-23T05:19:00.131Z,56.37
2018-09-23T05:21:28.386Z,59.43
2018-09-23T05:23:56.671Z,61.80
2018-09-23T05:26:24.938Z,60.70
2018-09-23T05:28:53.208Z,69.97
2018-09-23T05:31:21.468Z,54.40
2018-09-23T05:33:49.807Z,56.07
2018-09-23T05:36:18.086Z,51.13
2018-09-23T05:38:46.315Z,50.43
2018-09-23T05:41:14.580Z,56.30
2018-09-23T05:43:42.823Z,52.27
2018-09-23T05:46:11.068Z,47.30
2018-09-23T05:48:39.303Z,44.53
2018-09-23T05:51:07.573Z,57.83
2018-09-23T05:53:35.997Z,43.47
2018-09-23T05:56:04.278Z,52.13
2018-09-23T05:58:32.534Z,55.77
2018-09-23T06:01:00.815Z,47.30
2018-09-23T06:03:29.072Z,53.50
2018-09-23T06:05:57.303Z,43.57
2018-09-23T06:08:25.583Z,36.37
2018-09-23T06:10:53.829Z,48.90
2018-09-23T06:13:22.072Z,38.43
2018-09-23T06:15:50.320Z,46.30
2018-09-23T06:18:18.604Z,44.07
2018-09-23T06:20:46.848Z,49.30
2018-09-23T06:23:15.114Z,46.80
2018-09-23T06:25:43.362Z,50.07
2018-09-23T06:28:11.598Z,49.70
2018-09-23T06:30:39.976Z,39.53
2018-09-23T06:33:08.216Z,51.33
2018-09-23T06:35:36.497Z,38.73
2018-09-23T06:38:04.764Z,53.67
2018-09-23T06:40:33.046Z,44.47
2018-09-23T06:43:01.296Z,39.37
2018-09-23T06:45:29.612Z,45.90
2018-09-23T06:47:57.845Z,50.00
2018-09-23T06:50:26.082Z,37.83
2018-09-23T06:52:54.334Z,44.27
2018-09-23T06:55:22.588Z,45.23
2018-09-23T06:57:50.889Z,51.50
2018-09-23T07:00:19.120Z,38.33
2018-09-23T07:02:47.359Z,50.17
2018-09-23T07:05:15.591Z,38.70
2018-09-23T07:07:43.831Z,50.33
2018-09-23T07:10:12.077Z,39.50
2018-09-23T07:12:43.336Z,40.57
2018-09-23T07:15:11.618Z,38.60
2018-09-23T07:35:14.258Z,47.83
2018-09-23T07:37:42.522Z,48.90
2018-09-23T07:40:10.796Z,52.43
2018-09-23T07:42:39.044Z,45.33
2018-09-23T07:45:07.553Z,46.30
2018-09-23T07:47:36.054Z,42.00
2018-09-23T07:50:04.754Z,45.03
2018-09-23T07:52:33.360Z,51.43
2018-09-23T07:55:02.014Z,58.00
2018-09-23T07:57:30.407Z,48.87
2018-09-23T07:59:59.003Z,51.60
2018-09-23T08:02:27.417Z,51.20
2018-09-23T08:04:55.706Z,55.73
2018-09-23T08:07:24.168Z,48.20
2018-09-23T08:09:52.882Z,43.57
2018-09-23T08:12:21.531Z,46.10
2018-09-23T08:14:50.461Z,48.43
2018-09-23T08:17:18.545Z,54.83
2018-09-23T08:19:47.218Z,50.00
2018-09-23T08:22:15.510Z,49.53
2018-09-23T08:24:44.218Z,48.67
2018-09-23T08:27:12.781Z,51.57
2018-09-23T08:29:41.099Z,47.03
2018-09-23T08:32:09.374Z,53.93
2018-09-23T08:34:37.634Z,51.43
2018-09-23T08:37:06.279Z,47.00
2018-09-23T08:39:34.528Z,52.93
2018-09-23T08:42:02.764Z,51.70
2018-09-23T08:44:31.100Z,55.40
2018-09-23T08:46:59.487Z,61.20
2018-09-23T08:49:27.735Z,53.63
2018-09-23T08:51:56.089Z,50.20
2018-09-23T08:54:24.310Z,51.83
2018-09-23T08:56:52.557Z,52.20
2018-09-23T08:59:20.830Z,54.07
2018-09-23T09:01:49.111Z,49.20
2018-09-23T09:04:17.417Z,49.37
2018-09-23T09:06:45.969Z,44.83
2018-09-23T09:09:14.184Z,41.77
2018-09-23T09:11:42.470Z,41.43
2018-09-23T09:14:10.726Z,46.93
2018-09-23T09:16:39.046Z,50.80
2018-09-23T09:19:07.300Z,46.97
2018-09-23T09:21:35.567Z,44.50
2018-09-23T09:24:03.911Z,48.60
2018-09-23T09:26:32.219Z,50.37
2018-09-23T09:29:00.416Z,45.53
2018-09-23T09:31:28.678Z,43.43
2018-09-23T09:33:56.987Z,45.03
2018-09-23T09:36:25.397Z,45.83
2018-09-23T09:38:53.838Z,43.27
2018-09-23T09:41:22.127Z,52.60
2018-09-23T09:43:50.446Z,47.50
2018-09-23T09:46:18.687Z,47.83
2018-09-23T09:48:46.922Z,44.93
2018-09-23T09:51:15.204Z,48.80
2018-09-23T09:53:43.596Z,50.93
2018-09-23T09:56:13.579Z,46.63
2018-09-23T09:58:41.925Z,48.87
2018-09-23T10:01:10.144Z,41.73
2018-09-23T10:03:38.431Z,41.00
2018-09-23T10:06:06.673Z,34.93
2018-09-23T10:08:34.884Z,42.47
2018-09-23T10:11:03.146Z,34.83
2018-09-23T10:13:31.395Z,34.97
2018-09-23T10:15:59.683Z,30.97
2018-09-23T10:18:27.956Z,28.70
2018-09-23T10:20:56.228Z,29.87
2018-09-23T10:23:24.614Z,29.30
2018-09-23T10:25:52.775Z,24.03
2018-09-23T10:28:21.047Z,29.03
2018-09-23T10:30:49.293Z,29.87
2018-09-23T10:33:17.562Z,26.23
2018-09-23T10:35:45.807Z,31.20
2018-09-23T10:38:14.094Z,27.70
2018-09-23T10:40:42.345Z,33.13
2018-09-23T10:48:21.506Z,23.57
2018-09-23T10:50:49.966Z,25.67
2018-09-23T10:53:18.219Z,32.43
2018-09-23T10:55:46.569Z,30.13
2018-09-23T10:58:14.823Z,27.43
2018-09-23T11:00:43.085Z,26.43
2018-09-23T11:03:11.375Z,28.10
2018-09-23T11:05:39.664Z,20.97
2018-09-23T11:08:08.020Z,20.83
2018-09-23T11:10:36.378Z,21.20
2018-09-23T11:13:04.654Z,17.67
2018-09-23T11:15:33.026Z,21.13
2018-09-23T11:18:01.319Z,21.13
2018-09-23T11:20:29.674Z,19.37
2018-09-23T11:22:57.973Z,18.70
2018-09-23T11:25:26.204Z,17.43
2018-09-23T11:27:54.470Z,20.80
2018-09-23T11:30:22.738Z,22.60
2018-09-23T11:32:51.101Z,19.10
2018-09-23T11:35:19.405Z,23.20
2018-09-23T11:37:47.754Z,19.30
2018-09-23T11:40:16.059Z,18.23
2018-09-23T11:42:44.324Z,19.17
2018-09-23T11:45:12.736Z,17.60
2018-09-23T11:47:40.960Z,15.70
2018-09-23T11:50:09.193Z,14.93
2018-09-23T11:52:37.569Z,14.10
2018-09-23T11:55:05.909Z,16.83
2018-09-23T11:57:34.219Z,22.60
2018-09-23T12:00:02.536Z,13.60
2018-09-23T12:02:30.779Z,15.47
2018-09-23T12:04:59.060Z,14.90
2018-09-23T12:07:27.331Z,15.87
2018-09-23T12:09:55.644Z,15.80
2018-09-23T12:12:23.903Z,15.70
2018-09-23T12:14:52.341Z,15.40
2018-09-23T12:17:20.702Z,17.43
2018-09-23T12:19:48.956Z,20.40
2018-09-23T12:22:17.220Z,16.10
2018-09-23T12:24:45.480Z,20.83
2018-09-23T12:27:13.766Z,18.97
2018-09-23T12:29:42.054Z,19.50
2018-09-23T12:32:10.284Z,17.37
2018-09-23T12:34:38.759Z,18.10
2018-09-23T12:37:07.073Z,18.60
2018-09-23T12:39:35.427Z,21.70
2018-09-23T12:42:03.785Z,22.97
2018-09-23T12:44:32.212Z,20.47
2018-09-23T12:47:00.469Z,17.80
2018-09-23T12:49:29.067Z,23.10
2018-09-23T12:51:58.282Z,18.97
2018-09-23T12:54:26.552Z,19.40
2018-09-23T12:56:54.822Z,19.13
2018-09-23T12:59:23.218Z,18.47
2018-09-23T13:01:51.490Z,22.10
2018-09-23T13:04:19.791Z,21.40
2018-09-23T13:06:48.049Z,22.50
2018-09-23T13:09:16.877Z,21.37
2018-09-23T13:11:45.208Z,24.33
2018-09-23T13:14:13.634Z,22.70
2018-09-23T13:16:41.871Z,21.70
2018-09-23T13:19:10.143Z,25.37
2018-09-23T13:21:38.448Z,27.63
2018-09-23T13:24:06.792Z,21.60
2018-09-23T13:26:35.111Z,23.83
2018-09-23T13:29:03.490Z,22.20
2018-09-23T13:31:32.000Z,27.63
2018-09-23T13:34:00.263Z,21.73
2018-09-23T13:36:28.566Z,27.83
2018-09-23T13:38:56.790Z,22.70
2018-09-23T13:41:25.066Z,21.83
2018-09-23T13:43:53.550Z,15.20
2018-09-23T13:46:21.795Z,17.67
2018-09-23T13:48:50.040Z,17.67
2018-09-23T13:51:18.367Z,15.67
2018-09-23T13:53:46.696Z,17.73
2018-09-23T13:56:14.963Z,18.13
2018-09-23T13:58:43.318Z,14.37
2018-09-23T14:01:11.563Z,15.00
2018-09-23T14:03:39.889Z,16.07
2018-09-23T14:06:08.139Z,16.30
2018-09-23T14:08:36.354Z,19.50
2018-09-23T14:11:04.606Z,18.03
2018-09-23T14:13:32.855Z,14.17
2018-09-23T14:16:01.098Z,15.10
2018-09-23T14:18:29.406Z,14.87
2018-09-23T14:20:57.612Z,17.13
2018-09-23T14:23:25.846Z,17.93
2018-09-23T14:25:54.101Z,14.77
2018-09-23T14:28:22.348Z,11.17
2018-09-23T14:30:50.610Z,13.70
2018-09-23T14:33:18.834Z,11.70
2018-09-23T14:35:47.161Z,17.13
2018-09-23T14:38:15.394Z,19.67
2018-09-23T14:40:43.674Z,14.90
2018-09-23T14:43:11.900Z,12.80
2018-09-23T14:45:40.122Z,13.20
2018-09-23T14:48:08.619Z,12.63
2018-09-23T14:50:36.893Z,11.40
2018-09-23T14:53:05.158Z,9.50
2018-09-23T14:55:33.392Z,12.07
2018-09-23T14:58:01.637Z,11.40
2018-09-23T15:00:29.942Z,13.87
2018-09-23T15:02:58.176Z,21.63
2018-09-23T15:05:26.495Z,8.20
2018-09-23T15:07:54.746Z,11.00
2018-09-23T15:10:23.035Z,9.73
2018-09-23T15:12:51.300Z,16.50
2018-09-23T15:15:19.644Z,9.27
2018-09-23T15:17:48.008Z,6.63
2018-09-23T15:20:16.262Z,6.53
2018-09-23T15:22:44.477Z,11.60
2018-09-23T15:25:12.838Z,11.83
2018-09-23T15:27:41.095Z,10.73
2018-09-23T15:30:09.339Z,7.20
2018-09-23T15:32:37.568Z,11.40
2018-09-23T15:35:05.826Z,12.23
2018-09-23T15:37:34.147Z,9.53
2018-09-23T15:40:02.429Z,8.27
2018-09-23T15:42:30.718Z,8.97
2018-09-23T15:44:58.959Z,6.53
2018-09-23T15:47:27.232Z,3.40
2018-09-23T15:49:55.463Z,7.93
2018-09-23T15:52:23.752Z,9.03
2018-09-23T15:54:52.007Z,4.67
2018-09-23T15:57:20.343Z,7.07
2018-09-23T15:59:48.596Z,7.33
2018-09-23T16:02:16.851Z,3.90
2018-09-23T16:04:45.140Z,1.40
2018-09-23T16:07:13.375Z,2.63
2018-09-23T16:09:41.640Z,1.50
2018-09-23T16:12:09.854Z,4.03
2018-09-23T16:14:38.145Z,8.70
2018-09-23T16:17:06.771Z,10.80
2018-09-23T16:19:34.974Z,3.53
2018-09-23T16:22:03.219Z,9.40
2018-09-23T16:24:31.466Z,4.70
2018-09-23T16:26:59.746Z,2.20
2018-09-23T16:29:28.003Z,2.90
2018-09-23T16:32:02.980Z,2.40
2018-09-23T16:34:31.207Z,5.43
2018-09-23T16:36:59.487Z,3.67
2018-09-23T16:39:27.724Z,3.10
2018-09-23T16:41:55.959Z,4.60
2018-09-23T16:44:24.215Z,3.30
2018-09-23T16:46:52.472Z,3.00
2018-09-23T16:49:20.688Z,4.67
2018-09-23T16:51:48.955Z,10.00
2018-09-23T16:54:17.405Z,4.57
2018-09-23T16:56:45.589Z,3.13
2018-09-23T16:59:13.819Z,2.40
2018-09-23T17:01:42.078Z,2.10
2018-09-23T17:04:10.345Z,3.93
2018-09-23T17:06:38.596Z,2.83
2018-09-23T17:09:07.991Z,3.90
2018-09-23T17:11:36.279Z,1.40
2018-09-23T17:14:04.551Z,1.37
2018-09-23T17:16:32.798Z,2.70
2018-09-23T17:19:01.379Z,1.73
2018-09-23T17:21:29.605Z,1.50
2018-09-23T17:23:57.906Z,2.23
2018-09-23T17:26:26.147Z,1.63
2018-09-23T17:28:54.407Z,1.10
2018-09-23T17:31:22.660Z,1.73
2018-09-23T17:33:51.087Z,3.80
2018-09-23T17:36:19.402Z,4.10
2018-09-23T17:38:47.647Z,6.67
2018-09-23T17:41:15.917Z,8.97
2018-09-23T17:43:44.176Z,1.93
2018-09-23T17:46:12.534Z,16.13
2018-09-23T17:48:40.816Z,2.73
2018-09-23T17:51:09.031Z,2.03
2018-09-23T17:53:37.431Z,1.37
2018-09-23T17:56:05.708Z,6.83
2018-09-23T17:58:33.923Z,1.77
2018-09-23T18:01:02.180Z,7.57
2018-09-23T18:03:30.463Z,2.00
2018-09-23T18:05:58.696Z,3.83
2018-09-23T18:08:26.971Z,2.03
2018-09-23T18:10:55.226Z,3.97
2018-09-23T18:13:23.653Z,1.30
2018-09-23T18:15:51.940Z,3.87
2018-09-23T18:18:20.239Z,6.20
2018-09-23T18:20:48.489Z,9.17
2018-09-23T18:23:16.698Z,2.90
2018-09-23T18:25:44.984Z,1.67
2018-09-23T18:28:13.242Z,3.40
2018-09-23T18:30:41.520Z,2.20
2018-09-23T18:33:09.767Z,2.83
2018-09-23T18:35:38.057Z,5.57
2018-09-23T18:38:06.294Z,2.33
2018-09-23T18:40:34.586Z,4.90
2018-09-23T18:43:02.886Z,3.87
2018-09-23T18:45:31.235Z,7.73
2018-09-23T18:47:59.491Z,9.10
2018-09-23T18:50:27.757Z,4.50
2018-09-23T18:53:01.786Z,3.90
2018-09-23T18:55:35.411Z,11.27
2018-09-23T18:58:03.660Z,10.20
2018-09-23T19:00:31.903Z,7.83
2018-09-23T19:03:00.314Z,6.43
2018-09-23T19:05:28.844Z,7.63
2018-09-23T19:07:57.404Z,7.90
2018-09-23T19:10:25.967Z,4.90
2018-09-23T19:12:59.432Z,6.63
2018-09-23T19:15:27.832Z,4.10
2018-09-23T19:17:56.055Z,4.17
2018-09-23T19:20:25.441Z,10.67
2018-09-23T19:22:59.395Z,7.90
2018-09-23T19:25:27.663Z,5.23
2018-09-23T19:27:55.982Z,4.53
2018-09-23T19:30:24.202Z,5.40
2018-09-23T19:32:52.546Z,5.00
2018-09-23T19:35:21.296Z,6.20
2018-09-23T19:37:49.571Z,6.33
2018-09-23T19:40:17.819Z,3.87
2018-09-23T19:42:46.085Z,7.10
2018-09-23T19:45:14.506Z,2.93
2018-09-23T19:47:42.738Z,3.60
2018-09-23T19:50:11.024Z,7.40
2018-09-23T19:52:39.243Z,7.40
2018-09-23T19:55:07.519Z,5.77
2018-09-23T19:57:35.795Z,5.83
2018-09-23T20:00:04.055Z,7.73
2018-09-23T20:02:32.302Z,4.27
2018-09-23T20:05:00.581Z,5.13
2018-09-23T20:07:28.826Z,2.77
2018-09-23T20:09:57.071Z,3.93
2018-09-23T20:12:25.311Z,5.47
2018-09-23T20:14:53.591Z,6.17
2018-09-23T20:17:21.827Z,3.10
2018-09-23T20:19:50.083Z,5.40
2018-09-23T20:22:18.419Z,7.23
2018-09-23T20:24:46.692Z,12.30
2018-09-23T20:27:14.987Z,5.73
2018-09-23T20:29:43.223Z,10.53
2018-09-23T20:32:11.443Z,5.53
2018-09-23T20:34:39.739Z,3.20
2018-09-23T20:37:07.971Z,5.00
2018-09-23T20:39:36.227Z,9.63
2018-09-23T20:42:04.454Z,6.10
2018-09-23T20:44:32.891Z,7.13
2018-09-23T20:47:01.193Z,7.50
2018-09-23T20:49:29.794Z,3.10
2018-09-23T20:51:58.010Z,5.37
2018-09-23T20:54:26.258Z,4.60
2018-09-23T20:56:54.543Z,10.80
2018-09-23T20:59:22.775Z,5.50
2018-09-23T21:01:51.079Z,12.30
2018-09-23T21:04:19.279Z,7.03
2018-09-23T21:06:47.531Z,10.10
2018-09-23T21:09:15.835Z,6.63
2018-09-23T21:11:44.097Z,2.63
2018-09-23T21:14:12.451Z,7.90
2018-09-23T21:16:40.716Z,4.90
2018-09-23T21:19:08.970Z,12.07
2018-09-23T21:21:37.232Z,6.37
2018-09-23T21:24:05.462Z,6.17
2018-09-23T21:26:33.695Z,4.83
2018-09-23T21:29:02.009Z,3.33
2018-09-23T21:31:30.256Z,3.23
2018-09-23T21:33:58.486Z,5.53
2018-09-23T21:36:26.765Z,6.13
2018-09-23T21:38:55.004Z,9.60
2018-09-23T21:41:23.248Z,6.70
2018-09-23T21:43:51.595Z,7.17
2018-09-23T21:46:19.863Z,2.43
2018-09-23T21:48:48.091Z,5.33
2018-09-23T21:51:16.382Z,6.37
2018-09-23T21:53:44.832Z,5.40
2018-09-23T21:56:16.341Z,7.47
2018-09-23T21:58:44.563Z,3.33
2018-09-23T22:01:12.804Z,4.77
2018-09-23T22:03:41.030Z,8.13
2018-09-23T22:06:09.262Z,8.73
2018-09-23T22:08:37.514Z,6.20
2018-09-23T22:11:05.787Z,7.13
2018-09-23T22:13:34.207Z,4.50
2018-09-23T22:16:02.471Z,5.23
2018-09-23T22:18:30.699Z,4.33
2018-09-23T22:20:58.946Z,10.83
2018-09-23T22:23:27.196Z,5.47
2018-09-23T22:25:55.434Z,4.17
2018-09-23T22:28:23.659Z,5.20
2018-09-23T22:30:51.922Z,2.87
2018-09-23T22:33:20.171Z,2.90
2018-09-23T22:35:48.387Z,16.53
2018-09-23T22:38:16.606Z,5.40
2018-09-23T22:40:44.867Z,6.90
2018-09-23T22:43:13.115Z,13.87
2018-09-23T22:45:41.339Z,6.60
2018-09-23T22:48:09.591Z,10.40
2018-09-23T22:50:37.820Z,8.53
2018-09-23T22:53:06.383Z,7.17
2018-09-23T22:55:34.600Z,10.07
2018-09-23T22:58:02.854Z,7.90
2018-09-23T23:00:31.095Z,15.57
2018-09-23T23:02:59.311Z,11.17
2018-09-23T23:05:27.610Z,9.73
2018-09-23T23:07:55.832Z,7.90
2018-09-23T23:10:24.115Z,6.23
2018-09-23T23:12:52.368Z,17.13
2018-09-23T23:15:20.686Z,4.23
2018-09-23T23:17:48.940Z,12.30
2018-09-23T23:20:17.182Z,4.97
2018-09-23T23:22:45.418Z,9.70
2018-09-23T23:25:13.684Z,5.73
2018-09-23T23:27:41.947Z,11.20
2018-09-23T23:30:10.186Z,7.10
2018-09-23T23:32:38.427Z,5.30
2018-09-23T23:35:06.817Z,15.87
2018-09-23T23:37:35.071Z,6.90
2018-09-23T23:40:03.322Z,15.10
2018-09-23T23:42:31.547Z,8.70
2018-09-23T23:44:59.824Z,10.43
2018-09-23T23:47:28.060Z,17.87
2018-09-23T23:49:56.279Z,4.03
2018-09-23T23:52:24.528Z,7.67
2018-09-23T23:54:52.742Z,12.53
2018-09-23T23:57:21.004Z,10.10
2018-09-23T23:59:49.244Z,20.50
